Time;durP1;ratioP1;P1;durP2;ratioP2;P2;SDS_P1;SDS_P2;PMS_P1;PMS_P2;Temp;Humidity;BMP_temperature;BMP_pressure;BME280_temperature;BME280_humidity;BME280_pressure;Samples;Min_cycle;Max_cycle;Signal;HPM_P1;HPM_P2
2022/10/02 00:01:42;;;;;;;;;;;;;;;;;;5091275;28;19973;-76
2022/10/02 00:04:09;;;;;;;;;;;;;;;;;;5086376;28;19985;-76
2022/10/02 00:06:36;;;;;;;;;;;;;;;;;;5087395;28;19970;-75
2022/10/02 00:09:03;;;;;;;;;;;;;;;;;;5081468;28;19923;-75
2022/10/02 00:11:30;;;;;;;;;;;;;;;;;;5080954;28;19928;-75
2022/10/02 00:13:57;;;;;;;;;;;;;;;;;;5083611;28;19932;-75
2022/10/02 00:16:25;;;;;;;;;;;;;;;;;;5087505;28;19943;-76
2022/10/02 00:18:52;;;;;;;;;;;;;;;;;;5082285;28;20014;-75
2022/10/02 00:21:19;;;;;;;;;;;;;;;;;;5086350;28;20367;-75
2022/10/02 00:23:46;;;;;;;;;;;;;;;;;;5088882;28;19924;-75
2022/10/02 00:26:13;;;;;;;;;;;;;;;;;;5082737;28;20264;-75
2022/10/02 00:28:40;;;;;;;;;;;;;;;;;;5091675;28;19927;-75
2022/10/02 00:31:07;;;;;;;;;;;;;;;;;;5090240;28;20362;-74
2022/10/02 00:33:34;;;;;;;;;;;;;;;;;;5091417;28;19928;-75
2022/10/02 00:36:01;;;;;;;;;;;;;;;;;;5079692;28;19928;-76
2022/10/02 00:38:28;;;;;;;;;;;;;;;;;;5094162;28;20371;-75
2022/10/02 00:40:55;;;;;;;;;;;;;;;;;;5084688;28;19927;-75
2022/10/02 00:43:22;;;;;;;;;;;;;;;;;;5074272;28;19929;-75
2022/10/02 00:45:49;;;;;;;;;;;;;;;;;;5089216;28;19973;-74
2022/10/02 00:48:16;;;;;;;;;;;;;;;;;;5084796;28;19923;-74
2022/10/02 00:50:43;;;;;;;;;;;;;;;;;;5087529;28;19968;-74
2022/10/02 00:53:10;;;;;;;;;;;;;;;;;;5087855;28;19997;-73
2022/10/02 00:55:37;;;;;;;;;;;;;;;;;;5087824;28;19931;-74
2022/10/02 00:58:04;;;;;;;;;;;;;;;;;;5084954;28;19990;-74
2022/10/02 01:00:31;;;;;;;;;;;;;;;;;;5089080;28;19939;-74
2022/10/02 01:02:58;;;;;;;;;;;;;;;;;;5084393;28;19963;-74
2022/10/02 01:05:26;;;;;;;;;;;;;;;;;;5088105;28;19934;-73
2022/10/02 01:07:53;;;;;;;;;;;;;;;;;;5082491;28;19924;-74
2022/10/02 01:10:21;;;;;;;;;;;;;;;;;;5084097;28;19925;-74
2022/10/02 01:12:48;;;;;;;;;;;;;;;;;;5086756;28;19928;-73
2022/10/02 01:15:15;;;;;;;;;;;;;;;;;;5084541;28;20409;-74
2022/10/02 01:17:42;;;;;;;;;;;;;;;;;;5082993;28;19924;-74
2022/10/02 01:20:09;;;;;;;;;;;;;;;;;;5080857;28;19977;-74
2022/10/02 01:22:36;;;;;;;;;;;;;;;;;;5094706;28;20485;-74
2022/10/02 01:25:04;;;;;;;;;;;;;;;;;;5086445;28;19954;-74
2022/10/02 01:27:31;;;;;;;;;;;;;;;;;;5089939;28;20422;-74
2022/10/02 01:29:58;;;;;;;;;;;;;;;;;;5090091;28;19928;-74
2022/10/02 01:32:25;;;;;;;;;;;;;;;;;;5084379;28;19962;-73
2022/10/02 01:34:52;;;;;;;;;;;;;;;;;;5083577;28;19924;-74
2022/10/02 01:37:19;;;;;;;;;;;;;;;;;;5074670;28;20310;-73
2022/10/02 01:39:46;;;;;;;;;;;;;;;;;;5080070;28;19958;-74
2022/10/02 01:42:13;;;;;;;;;;;;;;;;;;5079251;28;20413;-73
2022/10/02 01:44:40;;;;;;;;;;;;;;;;;;5087630;28;19928;-74
2022/10/02 01:47:07;;;;;;;;;;;;;;;;;;5092285;28;19955;-74
2022/10/02 01:49:34;;;;;;;;;;;;;;;;;;5082231;28;19935;-73
2022/10/02 01:52:01;;;;;;;;;;;;;;;;;;5088786;28;19935;-73
2022/10/02 01:54:28;;;;;;;;;;;;;;;;;;5087481;28;19930;-73
2022/10/02 01:56:55;;;;;;;;;;;;;;;;;;5095289;28;19928;-74
2022/10/02 01:59:22;;;;;;;;;;;;;;;;;;5082784;28;19977;-73
2022/10/02 02:01:49;;;;;;;;;;;;;;;;;;5091163;28;19924;-73
2022/10/02 02:04:17;;;;;;;;;;;;;;;;;;5089599;28;20346;-73
2022/10/02 02:06:44;;;;;;;;;;;;;;;;;;5088039;28;19931;-73
2022/10/02 02:09:11;;;;;;;;;;;;;;;;;;5094838;28;20657;-73
2022/10/02 02:11:38;;;;;;;;;;;;;;;;;;5091638;28;19928;-73
2022/10/02 02:14:05;;;;;;;;;;;;;;;;;;5090911;28;19924;-73
2022/10/02 02:16:32;;;;;;;;;;;;;;;;;;5091719;28;19928;-72
2022/10/02 02:18:59;;;;;;;;;;;;;;;;;;5086107;28;19947;-73
2022/10/02 02:21:26;;;;;;;;;;;;;;;;;;5082656;28;19928;-73
2022/10/02 02:23:53;;;;;;;;;;;;;;;;;;5091171;28;19928;-73
2022/10/02 02:26:20;;;;;;;;;;;;;;;;;;5082081;28;19936;-72
2022/10/02 02:28:47;;;;;;;;;;;;;;;;;;5079568;28;20379;-71
2022/10/02 02:31:14;;;;;;;;;;;;;;;;;;5091844;28;19927;-73
2022/10/02 02:33:41;;;;;;;;;;;;;;;;;;5083518;28;20480;-73
2022/10/02 02:36:08;;;;;;;;;;;;;;;;;;5086575;28;19958;-73
2022/10/02 02:38:35;;;;;;;;;;;;;;;;;;5089137;28;19928;-73
2022/10/02 02:41:02;;;;;;;;;;;;;;;;;;5093454;28;20362;-72
2022/10/02 02:43:29;;;;;;;;;;;;;;;;;;5086854;28;19939;-73
2022/10/02 02:45:56;;;;;;;;;;;;;;;;;;5088444;28;20394;-72
2022/10/02 02:48:24;;;;;;;;;;;;;;;;;;5081670;28;19932;-73
2022/10/02 02:50:51;;;;;;;;;;;;;;;;;;5088568;28;20485;-73
2022/10/02 02:53:18;;;;;;;;;;;;;;;;;;5090903;28;19935;-74
2022/10/02 02:55:45;;;;;;;;;;;;;;;;;;5084842;28;20306;-73
2022/10/02 02:58:12;;;;;;;;;;;;;;;;;;5090047;28;19924;-73
2022/10/02 03:00:39;;;;;;;;;;;;;;;;;;5081909;28;19929;-73
2022/10/02 03:03:06;;;;;;;;;;;;;;;;;;5088015;28;20415;-73
2022/10/02 03:05:33;;;;;;;;;;;;;;;;;;5080711;28;20014;-73
2022/10/02 03:08:00;;;;;;;;;;;;;;;;;;5082433;28;20638;-74
2022/10/02 03:10:27;;;;;;;;;;;;;;;;;;5078308;28;20010;-72
2022/10/02 03:12:54;;;;;;;;;;;;;;;;;;5080622;28;20743;-73
2022/10/02 03:15:21;;;;;;;;;;;;;;;;;;5085825;28;19933;-72
2022/10/02 03:17:48;;;;;;;;;;;;;;;;;;5078872;28;20406;-73
2022/10/02 03:20:15;;;;;;;;;;;;;;;;;;5081726;28;19934;-73
2022/10/02 03:22:42;;;;;;;;;;;;;;;;;;5081481;28;20470;-73
2022/10/02 03:25:09;;;;;;;;;;;;;;;;;;5081566;28;19935;-72
2022/10/02 03:27:37;;;;;;;;;;;;;;;;;;5079504;28;20332;-73
2022/10/02 03:30:04;;;;;;;;;;;;;;;;;;5078970;28;19928;-73
2022/10/02 03:32:31;;;;;;;;;;;;;;;;;;5085864;28;19932;-73
2022/10/02 03:34:58;;;;;;;;;;;;;;;;;;5079855;28;19932;-73
2022/10/02 03:37:25;;;;;;;;;;;;;;;;;;5083328;28;20298;-72
2022/10/02 03:39:52;;;;;;;;;;;;;;;;;;5080755;28;19928;-72
2022/10/02 03:42:19;;;;;;;;;;;;;;;;;;5087880;28;19931;-72
2022/10/02 03:44:46;;;;;;;;;;;;;;;;;;5087189;28;19973;-72
2022/10/02 03:47:15;;;;;;;;;;;;;;;;;;5020530;28;1869987;-73
2022/10/02 03:49:42;;;;;;;;;;;;;;;;;;5092910;28;20019;-72
2022/10/02 03:52:09;;;;;;;;;;;;;;;;;;5089396;28;21143;-72
2022/10/02 03:54:36;;;;;;;;;;;;;;;;;;5087515;28;19985;-73
2022/10/02 03:57:03;;;;;;;;;;;;;;;;;;5087305;28;20279;-72
2022/10/02 03:59:30;;;;;;;;;;;;;;;;;;5091879;28;19927;-72
2022/10/02 04:01:57;;;;;;;;;;;;;;;;;;5087149;28;19932;-72
2022/10/02 04:04:24;;;;;;;;;;;;;;;;;;5092192;28;19924;-72
2022/10/02 04:06:52;;;;;;;;;;;;;;;;;;5078891;28;19928;-72
2022/10/02 04:09:19;;;;;;;;;;;;;;;;;;5085140;28;19977;-72
2022/10/02 04:11:46;;;;;;;;;;;;;;;;;;5093513;28;19932;-72
2022/10/02 04:14:13;;;;;;;;;;;;;;;;;;5088331;28;19931;-72
2022/10/02 04:16:40;;;;;;;;;;;;;;;;;;5080320;28;19973;-72
2022/10/02 04:19:07;;;;;;;;;;;;;;;;;;5079026;28;19936;-73
2022/10/02 04:21:34;;;;;;;;;;;;;;;;;;5089258;28;19935;-73
2022/10/02 04:24:01;;;;;;;;;;;;;;;;;;5090460;28;19932;-72
2022/10/02 04:26:28;;;;;;;;;;;;;;;;;;5087015;28;19931;-73
2022/10/02 04:28:55;;;;;;;;;;;;;;;;;;5088519;28;19943;-73
2022/10/02 04:31:23;;;;;;;;;;;;;;;;;;5086030;28;19932;-72
2022/10/02 04:33:50;;;;;;;;;;;;;;;;;;5091068;28;19928;-73
2022/10/02 04:36:17;;;;;;;;;;;;;;;;;;5094071;28;19935;-72
2022/10/02 04:38:44;;;;;;;;;;;;;;;;;;5090908;28;19940;-72
2022/10/02 04:41:11;;;;;;;;;;;;;;;;;;5087578;28;19931;-72
2022/10/02 04:43:38;;;;;;;;;;;;;;;;;;5089974;28;19925;-72
2022/10/02 04:46:05;;;;;;;;;;;;;;;;;;5085918;28;19931;-72
2022/10/02 04:48:32;;;;;;;;;;;;;;;;;;5085748;28;19932;-72
2022/10/02 04:50:59;;;;;;;;;;;;;;;;;;5088681;28;19981;-72
2022/10/02 04:53:26;;;;;;;;;;;;;;;;;;5085772;28;19939;-72
2022/10/02 04:55:53;;;;;;;;;;;;;;;;;;5086261;28;19928;-72
2022/10/02 04:58:20;;;;;;;;;;;;;;;;;;5088385;28;19923;-72
2022/10/02 05:00:47;;;;;;;;;;;;;;;;;;5088105;28;20546;-72
2022/10/02 05:03:14;;;;;;;;;;;;;;;;;;5086175;28;19928;-72
2022/10/02 05:05:41;;;;;;;;;;;;;;;;;;5088109;28;19932;-72
2022/10/02 05:08:07;;;;;;;;;;;;;;;;;;5088197;28;19924;-72
2022/10/02 05:10:34;;;;;;;;;;;;;;;;;;5086764;28;19974;-72
2022/10/02 05:13:01;;;;;;;;;;;;;;;;;;5088356;28;19928;-72
2022/10/02 05:15:29;;;;;;;;;;;;;;;;;;5087633;28;19939;-72
2022/10/02 05:17:56;;;;;;;;;;;;;;;;;;5085776;28;19928;-73
2022/10/02 05:20:23;;;;;;;;;;;;;;;;;;5080806;28;19924;-72
2022/10/02 05:22:50;;;;;;;;;;;;;;;;;;5088256;28;20382;-72
2022/10/02 05:25:17;;;;;;;;;;;;;;;;;;5074278;28;19928;-72
2022/10/02 05:27:44;;;;;;;;;;;;;;;;;;5089816;28;19977;-72
2022/10/02 05:30:11;;;;;;;;;;;;;;;;;;5090468;28;20742;-72
2022/10/02 05:32:38;;;;;;;;;;;;;;;;;;5085109;28;19931;-72
2022/10/02 05:35:05;;;;;;;;;;;;;;;;;;5079310;28;20011;-72
2022/10/02 05:37:32;;;;;;;;;;;;;;;;;;5079120;28;20271;-72
2022/10/02 05:39:59;;;;;;;;;;;;;;;;;;5081353;28;19932;-72
2022/10/02 05:42:26;;;;;;;;;;;;;;;;;;5077801;28;20016;-72
2022/10/02 05:44:53;;;;;;;;;;;;;;;;;;5081407;28;19924;-72
2022/10/02 05:47:20;;;;;;;;;;;;;;;;;;5080075;28;20006;-72
2022/10/02 05:49:47;;;;;;;;;;;;;;;;;;5086492;28;20023;-72
2022/10/02 05:52:14;;;;;;;;;;;;;;;;;;5075887;28;20386;-72
2022/10/02 05:54:41;;;;;;;;;;;;;;;;;;5085019;28;19928;-72
2022/10/02 05:57:08;;;;;;;;;;;;;;;;;;5080372;28;19924;-72
2022/10/02 05:59:35;;;;;;;;;;;;;;;;;;5085430;28;19938;-73
2022/10/02 06:02:02;;;;;;;;;;;;;;;;;;5081392;28;19928;-72
2022/10/02 06:04:29;;;;;;;;;;;;;;;;;;5082391;28;19934;-72
2022/10/02 06:06:56;;;;;;;;;;;;;;;;;;5086721;28;20320;-72
2022/10/02 06:09:23;;;;;;;;;;;;;;;;;;5093663;28;19924;-72
2022/10/02 06:11:51;;;;;;;;;;;;;;;;;;5080717;28;20367;-74
2022/10/02 06:14:18;;;;;;;;;;;;;;;;;;5086356;28;19960;-73
2022/10/02 06:16:45;;;;;;;;;;;;;;;;;;5082910;28;19924;-75
2022/10/02 06:19:12;;;;;;;;;;;;;;;;;;5080854;28;19931;-76
2022/10/02 06:21:39;;;;;;;;;;;;;;;;;;5089565;28;20608;-77
2022/10/02 06:24:06;;;;;;;;;;;;;;;;;;5079336;28;19927;-76
2022/10/02 06:26:33;;;;;;;;;;;;;;;;;;5085016;28;19938;-77
2022/10/02 06:29:01;;;;;;;;;;;;;;;;;;5083091;28;19928;-76
2022/10/02 06:31:28;;;;;;;;;;;;;;;;;;5080318;28;19924;-77
2022/10/02 06:33:55;;;;;;;;;;;;;;;;;;5085498;28;19932;-76
2022/10/02 06:36:22;;;;;;;;;;;;;;;;;;5087469;28;19959;-77
2022/10/02 06:38:49;;;;;;;;;;;;;;;;;;5086285;28;19932;-76
2022/10/02 06:41:18;;;;;;;;;;;;;;;;;;5078523;28;19928;-76
2022/10/02 06:43:45;;;;;;;;;;;;;;;;;;5084472;28;19930;-76
2022/10/02 06:46:12;;;;;;;;;;;;;;;;;;5085193;28;19932;-75
2022/10/02 06:48:39;;;;;;;;;;;;;;;;;;5093406;28;20311;-76
2022/10/02 06:51:06;;;;;;;;;;;;;;;;;;5090619;28;19928;-76
2022/10/02 06:53:34;;;;;;;;;;;;;;;;;;5082869;28;19928;-76
2022/10/02 06:56:01;;;;;;;;;;;;;;;;;;5084437;28;19962;-75
2022/10/02 06:58:28;;;;;;;;;;;;;;;;;;5086736;28;19939;-75
2022/10/02 07:00:55;;;;;;;;;;;;;;;;;;5088065;28;20039;-75
2022/10/02 07:03:23;;;;;;;;;;;;;;;;;;5091262;28;19924;-76
2022/10/02 07:05:52;;;;;;;;;;;;;;;;;;5090106;28;19924;-75
2022/10/02 07:08:19;;;;;;;;;;;;;;;;;;5083144;28;19932;-75
2022/10/02 07:10:46;;;;;;;;;;;;;;;;;;5084985;28;20003;-75
2022/10/02 07:13:13;;;;;;;;;;;;;;;;;;5090980;28;19934;-75
2022/10/02 07:15:40;;;;;;;;;;;;;;;;;;5083668;28;19925;-74
2022/10/02 07:18:07;;;;;;;;;;;;;;;;;;5090301;28;19931;-75
2022/10/02 07:20:34;;;;;;;;;;;;;;;;;;5086895;28;19934;-75
2022/10/02 07:23:01;;;;;;;;;;;;;;;;;;5080191;28;19932;-75
2022/10/02 07:25:28;;;;;;;;;;;;;;;;;;5088094;28;20366;-75
2022/10/02 07:27:55;;;;;;;;;;;;;;;;;;5082147;28;19932;-75
2022/10/02 07:30:22;;;;;;;;;;;;;;;;;;5094323;28;20379;-74
2022/10/02 07:32:49;;;;;;;;;;;;;;;;;;5089989;28;19928;-75
2022/10/02 07:35:16;;;;;;;;;;;;;;;;;;5093697;28;19951;-76
2022/10/02 07:37:43;;;;;;;;;;;;;;;;;;5085314;28;19928;-76
2022/10/02 07:40:10;;;;;;;;;;;;;;;;;;5087145;28;19924;-76
2022/10/02 07:42:37;;;;;;;;;;;;;;;;;;5085290;28;19938;-74
2022/10/02 07:45:04;;;;;;;;;;;;;;;;;;5085920;28;19924;-74
2022/10/02 07:47:31;;;;;;;;;;;;;;;;;;5086009;28;19939;-74
2022/10/02 07:49:58;;;;;;;;;;;;;;;;;;5088754;28;20385;-77
2022/10/02 07:52:25;;;;;;;;;;;;;;;;;;5089503;28;19924;-77
2022/10/02 07:54:52;;;;;;;;;;;;;;;;;;5088027;28;19959;-76
2022/10/02 07:57:19;;;;;;;;;;;;;;;;;;5086700;28;20632;-76
2022/10/02 07:59:46;;;;;;;;;;;;;;;;;;5088076;28;19931;-75
2022/10/02 08:02:13;;;;;;;;;;;;;;;;;;5083735;28;20411;-74
2022/10/02 08:04:40;;;;;;;;;;;;;;;;;;5088398;28;19924;-75
2022/10/02 08:07:07;;;;;;;;;;;;;;;;;;5092817;28;19950;-74
2022/10/02 08:09:35;;;;;;;;;;;;;;;;;;5082769;28;19931;-75
2022/10/02 08:12:02;;;;;;;;;;;;;;;;;;5085981;28;19932;-75
2022/10/02 08:14:29;;;;;;;;;;;;;;;;;;5091333;28;20599;-75
2022/10/02 08:16:56;;;;;;;;;;;;;;;;;;5084157;28;19931;-75
2022/10/02 08:19:23;;;;;;;;;;;;;;;;;;5086618;28;19928;-74
2022/10/02 08:21:54;;;;;;;;;;;;;;;;;;5092553;28;19928;-74
2022/10/02 08:24:21;;;;;;;;;;;;;;;;;;5081626;28;20359;-74
2022/10/02 08:26:48;;;;;;;;;;;;;;;;;;5085682;28;19936;-74
2022/10/02 08:29:15;;;;;;;;;;;;;;;;;;5090822;28;19965;-74
2022/10/02 08:31:42;;;;;;;;;;;;;;;;;;5081678;28;19932;-73
2022/10/02 08:34:09;;;;;;;;;;;;;;;;;;5089378;28;19924;-75
2022/10/02 08:36:36;;;;;;;;;;;;;;;;;;5080951;28;19928;-74
2022/10/02 08:39:03;;;;;;;;;;;;;;;;;;5084586;28;19935;-74
2022/10/02 08:41:30;;;;;;;;;;;;;;;;;;5081135;28;20302;-75
2022/10/02 08:43:57;;;;;;;;;;;;;;;;;;5088076;28;19924;-74
2022/10/02 08:46:24;;;;;;;;;;;;;;;;;;5089225;28;19959;-74
2022/10/02 08:48:53;;;;;;;;;;;;;;;;;;5085918;28;19928;-74
2022/10/02 08:51:20;;;;;;;;;;;;;;;;;;5085101;28;19967;-74
2022/10/02 08:53:47;;;;;;;;;;;;;;;;;;5088356;28;19952;-74
2022/10/02 08:56:14;;;;;;;;;;;;;;;;;;5085993;28;19950;-72
2022/10/02 08:58:42;;;;;;;;;;;;;;;;;;5087763;28;19931;-74
2022/10/02 09:01:09;;;;;;;;;;;;;;;;;;5085489;28;19925;-73
2022/10/02 09:03:36;;;;;;;;;;;;;;;;;;5084287;28;20032;-73
2022/10/02 09:06:03;;;;;;;;;;;;;;;;;;5083855;28;20313;-74
2022/10/02 09:08:32;;;;;;;;;;;;;;;;;;5089275;28;19935;-73
2022/10/02 09:11:00;;;;;;;;;;;;;;;;;;5082983;28;19929;-73
2022/10/02 09:13:27;;;;;;;;;;;;;;;;;;5082852;28;19971;-74
2022/10/02 09:15:54;;;;;;;;;;;;;;;;;;5080372;28;19967;-75
2022/10/02 09:18:21;;;;;;;;;;;;;;;;;;5080389;28;19923;-74
2022/10/02 09:20:48;;;;;;;;;;;;;;;;;;5089723;28;20282;-73
2022/10/02 09:23:15;;;;;;;;;;;;;;;;;;5086971;28;20032;-74
2022/10/02 09:25:42;;;;;;;;;;;;;;;;;;5074688;28;19928;-74
2022/10/02 09:28:10;;;;;;;;;;;;;;;;;;5089092;28;19932;-73
2022/10/02 09:30:38;;;;;;;;;;;;;;;;;;5088062;28;19928;-73
2022/10/02 09:33:05;;;;;;;;;;;;;;;;;;5076191;28;20015;-73
2022/10/02 09:35:32;;;;;;;;;;;;;;;;;;5087377;28;19934;-74
2022/10/02 09:38:04;;;;;;;;;;;;;;;;;;5078545;28;19929;-72
2022/10/02 09:40:31;;;;;;;;;;;;;;;;;;5079454;28;19932;-72
2022/10/02 09:42:58;;;;;;;;;;;;;;;;;;5082170;28;19932;-72
2022/10/02 09:45:26;;;;;;;;;;;;;;;;;;5085289;28;20442;-72
2022/10/02 09:47:53;;;;;;;;;;;;;;;;;;5085170;28;19931;-73
2022/10/02 09:50:20;;;;;;;;;;;;;;;;;;5090224;28;20402;-72
2022/10/02 09:52:48;;;;;;;;;;;;;;;;;;5088054;28;19931;-72
2022/10/02 09:55:15;;;;;;;;;;;;;;;;;;5083944;28;19987;-72
2022/10/02 09:57:42;;;;;;;;;;;;;;;;;;5075262;28;20040;-73
2022/10/02 10:00:11;;;;;;;;;;;;;;;;;;5076995;28;20079;-72
2022/10/02 10:02:38;;;;;;;;;;;;;;;;;;5087477;28;19924;-72
2022/10/02 10:05:07;;;;;;;;;;;;;;;;;;5084187;28;20545;-73
2022/10/02 10:07:34;;;;;;;;;;;;;;;;;;5081060;28;19982;-72
2022/10/02 10:10:01;;;;;;;;;;;;;;;;;;5084111;28;20353;-72
2022/10/02 10:12:28;;;;;;;;;;;;;;;;;;5087514;28;20481;-73
2022/10/02 10:14:55;;;;;;;;;;;;;;;;;;5090661;28;19931;-72
2022/10/02 10:17:22;;;;;;;;;;;;;;;;;;5088169;28;19927;-72
2022/10/02 10:19:49;;;;;;;;;;;;;;;;;;5088166;28;19932;-72
2022/10/02 10:22:17;;;;;;;;;;;;;;;;;;5079058;28;19957;-72
2022/10/02 10:24:45;;;;;;;;;;;;;;;;;;5091620;28;19924;-72
2022/10/02 10:27:12;;;;;;;;;;;;;;;;;;5086054;28;19939;-72
2022/10/02 10:29:39;;;;;;;;;;;;;;;;;;5087598;28;19928;-72
2022/10/02 10:32:06;;;;;;;;;;;;;;;;;;5087287;28;19924;-73
2022/10/02 10:34:33;;;;;;;;;;;;;;;;;;5083773;28;19935;-73
2022/10/02 10:39:45;;;;;;;;;;;;;;;;;;5092399;28;19919;-72
2022/10/02 10:42:12;;;;;;;;;;;;;;;;;;5094837;28;19932;-72
2022/10/02 10:44:39;;;;;;;;;;;;;;;;;;5088229;28;19924;-72
2022/10/02 10:47:06;;;;;;;;;;;;;;;;;;5084734;28;19924;-72
2022/10/02 10:49:34;;;;;;;;;;;;;;;;;;5082326;28;19928;-71
2022/10/02 10:52:06;;;;;;;;;;;;;;;;;;5080752;28;20045;-72
2022/10/02 10:54:33;;;;;;;;;;;;;;;;;;5087875;28;20436;-72
2022/10/02 10:57:00;;;;;;;;;;;;;;;;;;5092717;28;19931;-72
2022/10/02 10:59:27;;;;;;;;;;;;;;;;;;5090374;28;20435;-72
2022/10/02 11:01:54;;;;;;;;;;;;;;;;;;5088404;28;19935;-71
2022/10/02 11:04:22;;;;;;;;;;;;;;;;;;5083661;28;20383;-72
2022/10/02 11:06:50;;;;;;;;;;;;;;;;;;5088145;28;19934;-71
2022/10/02 11:09:17;;;;;;;;;;;;;;;;;;5083347;28;20465;-73
2022/10/02 11:11:44;;;;;;;;;;;;;;;;;;5080706;28;19939;-72
2022/10/02 11:14:12;;;;;;;;;;;;;;;;;;5077440;28;19936;-71
2022/10/02 11:16:39;;;;;;;;;;;;;;;;;;5075455;28;19928;-72
2022/10/02 11:19:06;;;;;;;;;;;;;;;;;;5073645;28;19957;-71
2022/10/02 11:21:33;;;;;;;;;;;;;;;;;;5084316;28;19979;-71
2022/10/02 11:24:00;;;;;;;;;;;;;;;;;;5077112;28;20383;-72
2022/10/02 11:26:27;;;;;;;;;;;;;;;;;;5081634;28;19929;-72
2022/10/02 11:28:55;;;;;;;;;;;;;;;;;;5088898;28;19955;-72
2022/10/02 11:31:22;;;;;;;;;;;;;;;;;;5078444;28;19939;-72
2022/10/02 11:33:49;;;;;;;;;;;;;;;;;;5091439;28;19932;-71
2022/10/02 11:36:16;;;;;;;;;;;;;;;;;;5088175;28;19939;-72
2022/10/02 11:38:44;;;;;;;;;;;;;;;;;;5085667;28;19928;-72
2022/10/02 11:41:12;;;;;;;;;;;;;;;;;;5090636;28;19967;-72
2022/10/02 11:43:39;;;;;;;;;;;;;;;;;;5082395;28;19932;-71
2022/10/02 11:46:06;;;;;;;;;;;;;;;;;;5092167;28;19924;-71
2022/10/02 11:48:33;;;;;;;;;;;;;;;;;;5085891;28;19932;-72
2022/10/02 11:51:00;;;;;;;;;;;;;;;;;;5091124;28;20446;-72
2022/10/02 11:53:28;;;;;;;;;;;;;;;;;;5089339;28;20640;-72
2022/10/02 11:55:55;;;;;;;;;;;;;;;;;;5084432;28;19986;-71
2022/10/02 11:58:22;;;;;;;;;;;;;;;;;;5083407;28;19928;-72
2022/10/02 12:00:50;;;;;;;;;;;;;;;;;;5088610;28;19928;-78
2022/10/02 12:03:17;;;;;;;;;;;;;;;;;;5091018;28;19932;-72
2022/10/02 12:05:44;;;;;;;;;;;;;;;;;;5084980;28;19941;-75
2022/10/02 12:08:13;;;;;;;;;;;;;;;;;;5089479;28;20341;-72
2022/10/02 12:10:41;;;;;;;;;;;;;;;;;;5079360;28;19947;-72
2022/10/02 12:13:08;;;;;;;;;;;;;;;;;;5089250;28;19943;-72
2022/10/02 12:15:35;;;;;;;;;;;;;;;;;;5090624;28;19931;-72
2022/10/02 12:18:02;;;;;;;;;;;;;;;;;;5087113;28;20018;-72
2022/10/02 12:28:43;;;;;;;;;;;;;;;;;;5078851;28;19994;-72
2022/10/02 12:31:10;;;;;;;;;;;;;;;;;;5092017;28;19928;-72
2022/10/02 12:33:37;;;;;;;;;;;;;;;;;;5085294;28;19932;-72
2022/10/02 12:36:05;;;;;;;;;;;;;;;;;;5090308;28;19923;-71
2022/10/02 12:38:33;;;;;;;;;;;;;;;;;;5075181;28;19936;-72
2022/10/02 12:41:00;;;;;;;;;;;;;;;;;;5081924;28;20593;-72
2022/10/02 12:43:27;;;;;;;;;;;;;;;;;;5089888;28;20591;-72
2022/10/02 12:45:57;;;;;;;;;;;;;;;;;;5084480;28;19934;-71
2022/10/02 12:48:24;;;;;;;;;;;;;;;;;;5085856;28;19973;-71
2022/10/02 12:50:52;;;;;;;;;;;;;;;;;;5085992;28;20428;-71
2022/10/02 12:53:19;;;;;;;;;;;;;;;;;;5088578;28;19927;-72
2022/10/02 12:55:46;;;;;;;;;;;;;;;;;;5083618;28;19924;-72
2022/10/02 12:58:13;;;;;;;;;;;;;;;;;;5074158;28;19932;-71
2022/10/02 13:00:40;;;;;;;;;;;;;;;;;;5085507;28;19935;-72
2022/10/02 13:03:07;;;;;;;;;;;;;;;;;;5082275;28;19928;-72
2022/10/02 13:05:34;;;;;;;;;;;;;;;;;;5086046;28;19934;-72
2022/10/02 13:08:01;;;;;;;;;;;;;;;;;;5086143;28;20303;-72
2022/10/02 13:10:28;;;;;;;;;;;;;;;;;;5080135;28;19931;-71
2022/10/02 13:12:55;;;;;;;;;;;;;;;;;;5076417;28;19932;-71
2022/10/02 13:15:22;;;;;;;;;;;;;;;;;;5079745;28;19932;-71
2022/10/02 13:17:49;;;;;;;;;;;;;;;;;;5077557;28;19955;-72
2022/10/02 13:20:16;;;;;;;;;;;;;;;;;;5082307;28;20184;-71
2022/10/02 13:22:43;;;;;;;;;;;;;;;;;;5079876;28;19941;-72
2022/10/02 13:25:10;;;;;;;;;;;;;;;;;;5085852;28;19928;-72
2022/10/02 13:27:37;;;;;;;;;;;;;;;;;;5087744;28;19924;-72
2022/10/02 13:30:05;;;;;;;;;;;;;;;;;;5081346;28;19955;-72
2022/10/02 13:32:32;;;;;;;;;;;;;;;;;;5084649;28;20023;-72
2022/10/02 13:34:59;;;;;;;;;;;;;;;;;;5073935;28;19975;-72
2022/10/02 13:37:26;;;;;;;;;;;;;;;;;;5079682;28;19924;-72
2022/10/02 13:39:53;;;;;;;;;;;;;;;;;;5082110;28;19940;-72
2022/10/02 13:42:20;;;;;;;;;;;;;;;;;;5078539;28;20386;-72
2022/10/02 13:44:48;;;;;;;;;;;;;;;;;;5080493;28;19931;-73
2022/10/02 13:47:15;;;;;;;;;;;;;;;;;;5092668;28;19931;-73
2022/10/02 13:49:42;;;;;;;;;;;;;;;;;;5092236;28;20002;-72
2022/10/02 13:52:09;;;;;;;;;;;;;;;;;;5097014;28;19930;-72
2022/10/02 13:54:37;;;;;;;;;;;;;;;;;;5094299;28;20299;-72
2022/10/02 13:57:04;;;;;;;;;;;;;;;;;;5089361;28;19979;-72
2022/10/02 13:59:31;;;;;;;;;;;;;;;;;;5080524;28;20460;-72
2022/10/02 14:01:58;;;;;;;;;;;;;;;;;;5084772;28;20118;-72
2022/10/02 14:04:26;;;;;;;;;;;;;;;;;;5092440;28;19952;-72
2022/10/02 14:06:53;;;;;;;;;;;;;;;;;;5080950;28;20023;-72
2022/10/02 14:09:20;;;;;;;;;;;;;;;;;;5079987;28;19924;-72
2022/10/02 14:11:47;;;;;;;;;;;;;;;;;;5085612;28;19937;-72
2022/10/02 14:14:14;;;;;;;;;;;;;;;;;;5089327;28;19936;-71
2022/10/02 14:16:41;;;;;;;;;;;;;;;;;;5079627;28;20042;-73
2022/10/02 14:19:08;;;;;;;;;;;;;;;;;;5086367;28;19931;-71
2022/10/02 14:21:35;;;;;;;;;;;;;;;;;;5092831;28;19939;-71
2022/10/02 14:24:02;;;;;;;;;;;;;;;;;;5082403;28;19936;-71
2022/10/02 14:26:29;;;;;;;;;;;;;;;;;;5088869;28;20379;-72
2022/10/02 14:28:56;;;;;;;;;;;;;;;;;;5094316;28;19936;-71
2022/10/02 14:31:23;;;;;;;;;;;;;;;;;;5094125;28;20371;-71
2022/10/02 14:33:50;;;;;;;;;;;;;;;;;;5092942;28;19925;-71
2022/10/02 14:36:18;;;;;;;;;;;;;;;;;;5088815;28;20264;-71
2022/10/02 14:38:45;;;;;;;;;;;;;;;;;;5090874;28;19924;-72
2022/10/02 14:41:12;;;;;;;;;;;;;;;;;;5082608;28;19931;-72
2022/10/02 14:43:39;;;;;;;;;;;;;;;;;;5083976;28;20987;-72
2022/10/02 14:46:06;;;;;;;;;;;;;;;;;;5094417;28;19928;-72
2022/10/02 14:48:33;;;;;;;;;;;;;;;;;;5089421;28;19932;-69
2022/10/02 14:51:00;;;;;;;;;;;;;;;;;;5090430;28;19928;-71
2022/10/02 14:53:27;;;;;;;;;;;;;;;;;;5092180;28;19924;-70
2022/10/02 14:55:54;;;;;;;;;;;;;;;;;;5083172;28;19936;-69
2022/10/02 14:58:21;;;;;;;;;;;;;;;;;;5086781;28;19935;-70
2022/10/02 15:00:48;;;;;;;;;;;;;;;;;;5087532;28;19924;-70
2022/10/02 15:03:15;;;;;;;;;;;;;;;;;;5086603;28;19928;-69
2022/10/02 15:05:42;;;;;;;;;;;;;;;;;;5088141;28;20697;-70
2022/10/02 15:08:10;;;;;;;;;;;;;;;;;;5087949;28;19935;-69
2022/10/02 15:10:37;;;;;;;;;;;;;;;;;;5084607;28;19933;-69
2022/10/02 15:13:04;;;;;;;;;;;;;;;;;;5085084;28;20358;-69
2022/10/02 15:15:31;;;;;;;;;;;;;;;;;;5079424;28;19928;-69
2022/10/02 15:17:59;;;;;;;;;;;;;;;;;;5083455;28;19981;-69
2022/10/02 15:20:26;;;;;;;;;;;;;;;;;;5082553;28;20305;-69
2022/10/02 15:22:53;;;;;;;;;;;;;;;;;;5088355;28;19928;-69
2022/10/02 15:25:20;;;;;;;;;;;;;;;;;;5082658;28;19925;-69
2022/10/02 15:27:47;;;;;;;;;;;;;;;;;;5085657;28;19928;-70
2022/10/02 15:30:14;;;;;;;;;;;;;;;;;;5095114;28;20888;-71
2022/10/02 15:32:41;;;;;;;;;;;;;;;;;;5090794;28;20515;-72
2022/10/02 15:35:08;;;;;;;;;;;;;;;;;;5088630;28;19929;-71
2022/10/02 15:37:35;;;;;;;;;;;;;;;;;;5088981;28;20309;-71
2022/10/02 15:40:04;;;;;;;;;;;;;;;;;;5094255;28;19959;-71
2022/10/02 15:42:31;;;;;;;;;;;;;;;;;;5088693;28;19944;-71
2022/10/02 15:44:58;;;;;;;;;;;;;;;;;;5092421;28;19923;-71
2022/10/02 15:47:26;;;;;;;;;;;;;;;;;;5093851;28;20336;-71
2022/10/02 15:49:54;;;;;;;;;;;;;;;;;;5093732;28;19928;-71
2022/10/02 15:52:21;;;;;;;;;;;;;;;;;;5087971;28;19982;-71
2022/10/02 15:54:48;;;;;;;;;;;;;;;;;;5095369;28;19930;-71
2022/10/02 15:57:15;;;;;;;;;;;;;;;;;;5083218;28;20310;-71
2022/10/02 15:59:42;;;;;;;;;;;;;;;;;;5085950;28;19924;-71
2022/10/02 16:02:09;;;;;;;;;;;;;;;;;;5080925;28;19927;-71
2022/10/02 16:04:36;;;;;;;;;;;;;;;;;;5079002;28;19935;-71
2022/10/02 16:07:03;;;;;;;;;;;;;;;;;;5083014;28;19943;-72
2022/10/02 16:09:31;;;;;;;;;;;;;;;;;;5083903;28;19924;-72
2022/10/02 16:11:58;;;;;;;;;;;;;;;;;;5084523;28;19930;-71
2022/10/02 16:14:25;;;;;;;;;;;;;;;;;;5081734;28;19928;-71
2022/10/02 16:16:52;;;;;;;;;;;;;;;;;;5084832;28;20010;-70
2022/10/02 16:19:19;;;;;;;;;;;;;;;;;;5084364;28;20503;-71
2022/10/02 16:21:46;;;;;;;;;;;;;;;;;;5090019;28;19932;-71
2022/10/02 16:24:13;;;;;;;;;;;;;;;;;;5087140;28;20496;-71
2022/10/02 16:26:40;;;;;;;;;;;;;;;;;;5090355;28;19931;-71
2022/10/02 16:29:07;;;;;;;;;;;;;;;;;;5089831;28;19924;-72
2022/10/02 16:31:34;;;;;;;;;;;;;;;;;;5079345;28;19932;-71
2022/10/02 16:34:01;;;;;;;;;;;;;;;;;;5084724;28;19932;-71
2022/10/02 16:36:30;;;;;;;;;;;;;;;;;;5086129;28;19970;-71
2022/10/02 16:38:58;;;;;;;;;;;;;;;;;;5085189;28;19954;-71
2022/10/02 16:41:25;;;;;;;;;;;;;;;;;;5080926;28;19934;-71
2022/10/02 16:43:53;;;;;;;;;;;;;;;;;;5084218;28;19932;-71
2022/10/02 16:46:20;;;;;;;;;;;;;;;;;;5085705;28;19939;-71
2022/10/02 16:48:47;;;;;;;;;;;;;;;;;;5088431;28;19939;-71
2022/10/02 16:51:14;;;;;;;;;;;;;;;;;;5085758;28;19935;-71
2022/10/02 16:53:41;;;;;;;;;;;;;;;;;;5092055;28;19928;-71
2022/10/02 16:56:09;;;;;;;;;;;;;;;;;;5080657;28;20724;-70